Data for 03/27/2016

Time Sea-Level Adjusted Pressure Absolute Pressure Temperature Relative Humidity Dew Point   
(mb) (inHg) (mb) (inHg) (C) (F) (%) (C) (F)
00:05 1016 30 846 24.98 1.1 34 48 -8.8 16.1
00:10 1016 30 845 24.95 1.1 34 48 -8.8 16.2
00:15 1016 30 845 24.95 1.3 34.3 47 -8.8 16.2
00:20 1016 30 845 24.95 1.3 34.3 47 -8.9 15.9
00:25 1016 30 845 24.95 1.2 34.2 49 -8.3 17
00:30 1016 30 845 24.95 0.6 33.2 49 -9 15.9
00:35 1016 30 845 24.95 0.4 32.7 50 -8.9 16
00:40 1016 30 845 24.95 0.3 32.5 50 -9 15.7
00:45 1016 30 845 24.95 0.2 32.4 49 -9.2 15.5
00:50 1016 30 845 24.95 0.5 32.8 48 -9.4 15.1
00:55 1016 30 845 24.95 0.5 32.9 49 -9 15.7
01:00 1016 30 845 24.95 0.2 32.3 51 -8.9 16
01:05 1016 30 845 24.95 -0.1 31.8 51 -9.1 15.7
01:10 1016 30 845 24.95 -0.1 31.8 50 -9.4 15.2
01:15 1016 30 845 24.95 -0 32 51 -9 15.7
01:20 1016 30 845 24.95 -0.3 31.5 51 -9.1 15.5
01:25 1016 30 845 24.95 -0.4 31.3 52 -9 15.8
01:30 1016 30 845 24.95 -0.5 31.1 53 -9 15.9
01:35 1016 30 845 24.95 -0.6 31 53 -9 15.9
01:40 1016 30 845 24.95 -0.6 30.9 52 -9.3 15.3
01:45 1016 30 845 24.95 -0.3 31.5 51 -9.3 15.3
01:50 1016 30 845 24.95 -0.3 31.5 50 -9.5 15
01:55 1016 30 845 24.95 -0.1 31.8 50 -9.4 15
02:00 1016 30 845 24.95 -0.1 31.8 49 -9.5 14.9
02:05 1016 30 845 24.95 -0 32 48 -9.8 14.4
02:10 1016 30 845 24.95 0.1 32.2 48 -9.7 14.6
02:15 1016 30 845 24.95 0 32 50 -9.2 15.4
02:20 1016 30 845 24.95 -0.2 31.7 52 -9 15.9
02:25 1016 30 845 24.95 -0.3 31.4 53 -8.7 16.3
02:30 1016 30 845 24.95 -0.5 31.1 53 -8.9 16
02:35 1016 30 845 24.95 -0.6 31 54 -8.7 16.4
02:40 1016 30 845 24.95 -0.4 31.2 51 -9.5 15
02:45 1016 30 845 24.95 0.2 32.3 51 -8.7 16.3
02:50 1016 30 845 24.95 -0.2 31.6 54 -8.6 16.6
02:55 1016 30 845 24.95 -0.5 31.1 54 -8.7 16.4
03:00 1016 30 845 24.95 -0.6 31 56 -8.3 17.1
03:05 1015 29.97 845 24.95 -0.9 30.5 56 -8.6 16.5
03:10 1015 29.97 845 24.95 -0.9 30.4 57 -8.4 16.9
03:15 1015 29.97 845 24.95 -1.2 29.9 57 -8.5 16.6
03:20 1015 29.97 845 24.95 -1.4 29.5 60 -8.3 17.1
03:25 1015 29.97 845 24.95 -1.5 29.2 57 -8.9 15.9
03:30 1015 29.97 845 24.95 -1.4 29.5 56 -9.2 15.5
03:35 1015 29.97 845 24.95 -1.3 29.7 55 -9.3 15.3
03:40 1015 29.97 845 24.95 -1.2 29.9 55 -9.1 15.7
03:45 1015 29.97 845 24.95 -1.5 29.4 57 -8.8 16.1
03:50 1015 29.97 845 24.95 -1.6 29 57 -9.1 15.5
03:55 1015 29.97 845 24.95 -1.5 29.3 56 -9.1 15.6
04:00 1015 29.97 845 24.95 -1.4 29.5 55 -9.3 15.2
04:05 1015 29.97 845 24.95 -1.2 29.8 55 -9.2 15.5
04:10 1015 29.97 845 24.95 -1.2 29.8 55 -9.2 15.5
04:15 1015 29.97 845 24.95 -1.4 29.5 56 -9 15.7
04:20 1015 29.97 845 24.95 -1.5 29.2 57 -8.9 16
04:25 1015 29.97 845 24.95 -1.7 28.9 57 -9.2 15.5
04:30 1015 29.97 845 24.95 -1.6 29.1 56 -9.4 15.1
04:35 1015 29.97 845 24.95 -1.5 29.4 54 -9.5 14.9
04:40 1015 29.97 845 24.95 -1.3 29.7 53 -9.6 14.7
04:45 1015 29.97 845 24.95 -1.2 29.9 53 -9.5 14.8
04:50 1015 29.97 845 24.95 -1.2 29.8 53 -9.6 14.8
04:55 1015 29.97 845 24.95 -1.3 29.6 54 -9.5 14.9
05:00 1015 29.97 845 24.95 -1.5 29.3 55 -9.4 15.1
05:05 1015 29.97 845 24.95 -1.7 28.9 57 -9.2 15.4
05:10 1015 29.97 845 24.95 -2 28.5 58 -9.2 15.4
05:15 1015 29.97 845 24.95 -2.1 28.2 58 -9.4 15.1
05:20 1015 29.97 845 24.95 -2.1 28.3 56 -9.6 14.6
05:25 1015 29.97 845 24.95 -2.1 28.2 57 -9.5 14.8
05:30 1015 29.97 845 24.95 -2 28.4 55 -9.8 14.3
05:35 1015 29.97 845 24.95 -1.7 28.9 54 -9.8 14.4
05:40 1015 29.97 845 24.95 -1.6 29 54 -9.8 14.4
05:45 1015 29.97 844 24.92 -1.8 28.8 54 -9.9 14.3
05:50 1015 29.97 844 24.92 -1.7 28.9 54 -9.8 14.4
05:55 1015 29.97 844 24.92 -1.8 28.8 55 -9.7 14.5
06:00 1015 29.97 844 24.92 -2 28.4 55 -9.8 14.4
06:05 1015 29.97 844 24.92 -2 28.4 55 -10 14.1
06:10 1015 29.97 844 24.92 -1.9 28.5 55 -9.8 14.3
06:15 1015 29.97 844 24.92 -1.9 28.6 54 -10.1 13.8
06:20 1015 29.97 844 24.92 -1.8 28.7 54 -10 13.9
06:25 1015 29.97 844 24.92 -2 28.5 54 -10.1 13.8
06:30 1015 29.97 844 24.92 -1.8 28.7 53 -10.3 13.5
06:35 1015 29.97 844 24.92 -1.5 29.2 52 -10.2 13.6
06:40 1015 29.97 844 24.92 -1.6 29.1 52 -10.2 13.6
06:45 1015 29.97 844 24.92 -1.5 29.3 50 -10.6 12.9
06:50 1015 29.97 844 24.92 -1.3 29.7 50 -10.5 13.1
06:55 1015 29.97 844 24.92 -1.1 30 49 -10.5 13.1
07:00 1015 29.97 844 24.92 -0.9 30.3 48 -10.5 13
07:05 1015 29.97 844 24.92 -0.6 30.9 46 -10.8 12.5
07:10 1015 29.97 844 24.92 -0.3 31.5 45 -10.8 12.5
07:15 1015 29.97 844 24.92 0.1 32.1 45 -10.6 13
07:20 1015 29.97 844 24.92 0.5 32.9 43 -10.7 12.7
07:25 1015 29.97 844 24.92 0.8 33.4 42 -10.7 12.7
07:30 1015 29.97 844 24.92 0.7 33.3 43 -10.4 13.3
07:35 1015 29.97 844 24.92 0.8 33.4 43 -10.5 13.1
07:40 1015 29.97 844 24.92 0.9 33.6 42 -10.6 12.9
07:45 1015 29.97 844 24.92 1.5 34.7 41 -10.3 13.5
07:50 1015 29.97 844 24.92 1.6 35 40 -10.4 13.2
07:55 1015 29.97 844 24.92 1.9 35.4 41 -10.1 13.8
08:00 1015 29.97 844 24.92 1.5 34.8 42 -10.1 13.8
08:05 1015 29.97 844 24.92 1.5 34.8 42 -10.1 13.9
08:10 1015 29.97 844 24.92 1.7 35.1 42 -9.8 14.3
08:15 1015 29.97 844 24.92 2.1 35.7 41 -9.9 14.2
08:20 1015 29.97 844 24.92 2.2 35.9 40 -10 14.1
08:25 1015 29.97 844 24.92 2.4 36.3 39 -10.1 13.8
08:30 1015 29.97 844 24.92 2.6 36.6 39 -10.1 13.9
08:35 1015 29.97 844 24.92 2.8 37 38 -10.3 13.5
08:40 1015 29.97 844 24.92 3.3 38 36 -10.3 13.4
08:45 1015 29.97 844 24.92 4 39.2 35 -10.2 13.7
08:50 1015 29.97 844 24.92 3.8 38.9 33 -11.1 12.1
08:55 1015 29.97 844 24.92 4.2 39.6 31 -11.5 11.4
09:00 1015 29.97 844 24.92 4.5 40.1 32 -10.8 12.5
09:05 1015 29.97 844 24.92 5.1 41.1 31 -10.9 12.5
09:10 1015 29.97 844 24.92 5.7 42.3 28 -11.4 11.5
09:15 1015 29.97 844 24.92 5.3 41.5 29 -11.2 11.8
09:20 1015 29.97 844 24.92 5.6 42.1 31 -10.4 13.4
09:25 1015 29.97 844 24.92 5.8 42.4 30 -10.3 13.4
09:30 1014 29.94 844 24.92 5.9 42.7 30 -10.3 13.5
09:35 1014 29.94 844 24.92 5.8 42.4 30 -10.5 13
09:40 1014 29.94 844 24.92 5.9 42.6 30 -10.6 12.9
09:45 1014 29.94 844 24.92 6.3 43.3 28 -10.9 12.4
09:50 1014 29.94 844 24.92 6.5 43.7 29 -10.4 13.4
09:55 1014 29.94 844 24.92 6.7 44.1 27 -10.8 12.6
10:00 1014 29.94 843 24.89 6.9 44.5 27 -10.8 12.6
10:05 1014 29.94 843 24.89 6.9 44.4 28 -10.4 13.2
10:10 1014 29.94 843 24.89 7.6 45.6 27 -10.3 13.5
10:15 1014 29.94 843 24.89 8.6 47.4 25 -10.2 13.7
10:20 1014 29.94 843 24.89 8.6 47.6 25 -10.2 13.6
10:25 1014 29.94 843 24.89 8.6 47.5 24 -10.7 12.8
10:30 1014 29.94 843 24.89 9.3 48.7 25 -9.8 14.3
10:35 1014 29.94 843 24.89 9 48.2 25 -9.9 14.2
10:40 1014 29.94 843 24.89 8.9 47.9 24 -10.6 12.9
10:45 1014 29.94 843 24.89 9.2 48.5 25 -9.9 14.2
10:50 1014 29.94 843 24.89 9.2 48.5 25 -10.1 13.9
10:55 1014 29.94 843 24.89 8.9 47.9 25 -10 14.1
11:00 1014 29.94 843 24.89 8.8 47.9 25 -9.9 14.1
11:05 1014 29.94 843 24.89 8.7 47.6 26 -9.6 14.7
11:10 1014 29.94 843 24.89 8.8 47.9 26 -9.9 14.2
11:15 1013 29.91 843 24.89 8.6 47.5 26 -9.9 14.2
11:20 1013 29.91 843 24.89 8.7 47.7 26 -9.6 14.6
11:25 1013 29.91 843 24.89 9.3 48.8 25 -9.8 14.4
11:30 1013 29.91 843 24.89 9.6 49.3 25 -9.6 14.6
11:35 1013 29.91 842 24.86 9.6 49.3 25 -9.6 14.8
11:40 1013 29.91 842 24.86 9.9 49.8 25 -9.4 15.1
11:45 1013 29.91 842 24.86 11 51.8 23 -9.5 14.9
11:50 1013 29.91 842 24.86 10.7 51.3 23 -9.4 15.1
11:55 1013 29.91 842 24.86 11 51.8 24 -8.7 16.3
12:00 1013 29.91 842 24.86 10.4 50.7 25 -9.1 15.7
12:05 1013 29.91 842 24.86 10.6 51 25 -8.7 16.4
12:10 1013 29.91 842 24.86 10.5 50.9 25 -8.7 16.4
12:15 1013 29.91 842 24.86 10.8 51.4 25 -8.5 16.6
12:20 1013 29.91 842 24.86 10.8 51.4 25 -8.5 16.6
12:25 1013 29.91 842 24.86 11.1 51.9 24 -8.5 16.7
12:30 1013 29.91 842 24.86 11 51.8 24 -8.8 16.2
12:35 1013 29.91 842 24.86 11.3 52.4 23 -8.9 16
12:40 1013 29.91 842 24.86 11.3 52.4 24 -8.5 16.7
12:45 1012 29.88 842 24.86 11.1 51.9 25 -8.5 16.8
12:50 1012 29.88 842 24.86 10.9 51.6 25 -8.3 17
12:55 1012 29.88 842 24.86 11 51.8 25 -8.5 16.8
13:00 1012 29.88 841 24.83 11.7 53 24 -8.5 16.8
13:05 1012 29.88 841 24.83 11.7 53.1 23 -8.6 16.6
13:10 1012 29.88 841 24.83 11.2 52.2 24 -8.5 16.7
13:15 1012 29.88 841 24.83 10.9 51.7 25 -8.3 17
13:20 1012 29.88 841 24.83 11.2 52.2 25 -8.1 17.4
13:25 1012 29.88 841 24.83 10.7 51.3 25 -8.4 16.9
13:30 1012 29.88 841 24.83 10.7 51.3 25 -8.6 16.4
13:35 1012 29.88 841 24.83 11 51.8 25 -8.1 17.3
13:40 1012 29.88 841 24.83 11.4 52.6 24 -8.2 17.2
13:45 1012 29.88 841 24.83 11 51.8 25 -8.1 17.4
13:50 1012 29.88 841 24.83 10.9 51.7 24 -8.6 16.5
13:55 1012 29.88 841 24.83 10.9 51.7 25 -8.5 16.7
14:00 1012 29.88 841 24.83 11.6 52.8 23 -8.6 16.5
14:05 1012 29.88 841 24.83 11.2 52.2 25 -8.2 17.2
14:10 1011 29.85 841 24.83 11.1 51.9 25 -8.4 16.8
14:15 1011 29.85 841 24.83 11.5 52.6 24 -8.6 16.4
14:20 1011 29.85 840 24.81 11.8 53.3 24 -8.3 17.1
14:25 1011 29.85 840 24.81 12.1 53.9 24 -7.9 17.7
14:30 1011 29.85 840 24.81 12.5 54.4 22 -8.5 16.7
14:35 1011 29.85 840 24.81 12.6 54.7 23 -7.7 18.1
14:40 1011 29.85 840 24.81 12.4 54.4 23 -7.9 17.7
14:45 1011 29.85 840 24.81 11.6 52.9 24 -8.4 16.9
14:50 1011 29.85 840 24.81 10.9 51.6 26 -8 17.6
14:55 1011 29.85 840 24.81 10.8 51.5 25 -8.4 16.9
15:00 1011 29.85 840 24.81 10.8 51.4 26 -8 17.5
15:05 1011 29.85 840 24.81 10.7 51.2 25 -8.7 16.3
15:10 1011 29.85 840 24.81 10.4 50.7 26 -8.5 16.7
15:15 1011 29.85 840 24.81 10.6 51 25 -8.5 16.7
15:20 1011 29.85 840 24.81 10.7 51.3 25 -8.4 16.9
15:25 1011 29.85 840 24.81 10.6 51 25 -8.4 16.8
15:30 1011 29.85 840 24.81 10.5 51 26 -8.3 17
15:35 1011 29.85 840 24.81 10.7 51.2 27 -7.8 18
15:40 1011 29.85 840 24.81 10.8 51.4 27 -7.4 18.7
15:45 1011 29.85 840 24.81 10.6 51.2 26 -7.9 17.8
15:50 1011 29.85 840 24.81 10.5 51 25 -8.6 16.6
15:55 1011 29.85 840 24.81 10.6 51.1 26 -8.3 17.1
16:00 1011 29.85 840 24.81 10.7 51.2 27 -7.7 18.2
16:05 1011 29.85 840 24.81 10.6 51 27 -7.7 18.2
16:10 1011 29.85 840 24.81 10.4 50.8 27 -7.7 18.2
16:15 1011 29.85 840 24.81 10.3 50.6 27 -7.9 17.8
16:20 1011 29.85 840 24.81 10.2 50.3 29 -7.3 18.9
16:25 1011 29.85 840 24.81 10.1 50.1 28 -7.4 18.7
16:30 1011 29.85 840 24.81 9.9 49.8 30 -7 19.4
16:35 1011 29.85 840 24.81 9.6 49.3 29 -7.4 18.7
16:40 1011 29.85 840 24.81 9.4 49 31 -7 19.5
16:45 1011 29.85 840 24.81 9.3 48.8 30 -7.2 19.1
16:50 1011 29.85 840 24.81 9.2 48.6 32 -6.7 20
16:55 1011 29.85 840 24.81 9.1 48.4 33 -6.5 20.3
17:00 1011 29.85 840 24.81 9.1 48.4 33 -6.5 20.3
17:05 1011 29.85 840 24.81 9.1 48.4 31 -7.1 19.2
17:10 1011 29.85 840 24.81 9.1 48.4 31 -7.1 19.3
17:15 1011 29.85 840 24.81 9.1 48.5 31 -7 19.4
17:20 1011 29.85 840 24.81 9.1 48.4 32 -6.7 19.9
17:25 1011 29.85 840 24.81 9.2 48.5 32 -6.6 20.2
17:30 1011 29.85 840 24.81 9 48.3 32 -6.6 20.1
17:35 1011 29.85 840 24.81 9 48.2 33 -6.3 20.7
17:40 1011 29.85 840 24.81 9 48.1 33 -6.4 20.5
17:45 1011 29.85 840 24.81 8.9 48 35 -5.8 21.6
17:50 1011 29.85 840 24.81 8.8 47.8 34 -6 21.1
17:55 1011 29.85 840 24.81 8.7 47.6 34 -6.3 20.6
18:00 1011 29.85 840 24.81 8.6 47.4 35 -5.9 21.3
18:05 1011 29.85 840 24.81 8.5 47.3 34 -6.3 20.7
18:10 1011 29.85 840 24.81 8.4 47.2 35 -6.3 20.7
18:15 1011 29.85 840 24.81 8.4 47.1 34 -6.7 19.9
18:20 1011 29.85 840 24.81 8.4 47 33 -6.8 19.7
18:25 1011 29.85 840 24.81 8.3 47 33 -7 19.4
18:30 1011 29.85 840 24.81 8.4 47 33 -6.8 19.7
18:35 1011 29.85 840 24.81 8.3 46.9 34 -6.8 19.8
18:40 1011 29.85 840 24.81 8.2 46.8 34 -6.6 20.1
18:45 1011 29.85 841 24.83 8.1 46.6 35 -6.3 20.7
18:50 1011 29.85 841 24.83 7.8 46.1 38 -5.7 21.8
18:55 1011 29.85 841 24.83 7.4 45.3 46 -3.5 25.7
19:00 1012 29.88 841 24.83 6.9 44.4 49 -2.9 26.7
19:05 1012 29.88 841 24.83 6.5 43.7 53 -2.5 27.6
19:10 1012 29.88 841 24.83 6.2 43.1 55 -2.2 28.1
19:15 1012 29.88 841 24.83 6 42.8 55 -2.2 28
19:20 1012 29.88 841 24.83 6 42.8 57 -1.9 28.5
19:25 1012 29.88 841 24.83 5.7 42.3 61 -1.3 29.7
19:30 1012 29.88 841 24.83 5.4 41.8 62 -1.2 29.9
19:35 1012 29.88 841 24.83 5.1 41.1 66 -0.7 30.8
19:40 1012 29.88 841 24.83 4.7 40.4 71 -0.1 31.9
19:45 1012 29.88 841 24.83 4.2 39.6 75 0.2 32.4
19:50 1012 29.88 841 24.83 3.7 38.6 78 0.2 32.4
19:55 1012 29.88 841 24.83 3.3 38 82 0.6 33
20:00 1012 29.88 841 24.83 3.1 37.6 83 0.6 33
20:05 1012 29.88 841 24.83 2.8 37.1 85 0.5 32.9
20:10 1012 29.88 841 24.83 2.5 36.4 87 0.5 32.9
20:15 1012 29.88 841 24.83 2.2 36 87 0.3 32.5
20:20 1012 29.88 842 24.86 1.9 35.4 89 0.2 32.4
20:25 1012 29.88 842 24.86 1.7 35.1 90 0.2 32.4
20:30 1012 29.88 842 24.86 1.5 34.8 90 0.1 32.2
20:35 1012 29.88 842 24.86 1.3 34.3 91 -0.1 31.9
20:40 1012 29.88 842 24.86 1 33.9 92 -0.2 31.6
20:45 1012 29.88 842 24.86 0.7 33.3 92 -0.4 31.3
20:50 1012 29.88 842 24.86 0.4 32.8 93 -0.6 31
20:55 1013 29.91 842 24.86 0.3 32.5 93 -0.7 30.8
21:00 1013 29.91 842 24.86 0.2 32.3 94 -0.7 30.7
21:05 1013 29.91 842 24.86 0.2 32.3 94 -0.7 30.8
21:10 1013 29.91 842 24.86 0.1 32.2 94 -0.7 30.7
21:15 1013 29.91 842 24.86 0.1 32.2 94 -0.7 30.7
21:20 1013 29.91 842 24.86 0.1 32.2 94 -0.7 30.7
21:25 1013 29.91 842 24.86 0.2 32.3 94 -0.6 30.9
21:30 1013 29.91 842 24.86 0.1 32.2 94 -0.7 30.7
21:35 1013 29.91 842 24.86 -0 32 94 -0.8 30.5
21:40 1013 29.91 842 24.86 -0.1 31.8 94 -0.9 30.3
21:45 1013 29.91 842 24.86 -0.1 31.8 95 -0.9 30.4
21:50 1013 29.91 842 24.86 -0.1 31.8 95 -0.9 30.4
21:55 1013 29.91 842 24.86 -0.1 31.8 95 -0.9 30.4
22:00 1013 29.91 842 24.86 -0.1 31.8 95 -0.8 30.5
22:05 1013 29.91 842 24.86 -0 32 95 -0.8 30.6
22:10 1013 29.91 842 24.86 0 32 95 -0.7 30.7
22:15 1013 29.91 842 24.86 0.1 32.1 95 -0.7 30.8
22:20 1013 29.91 842 24.86 0.1 32.2 95 -0.6 30.9
22:25 1013 29.91 842 24.86 0.1 32.2 95 -0.6 30.9
22:30 1013 29.91 842 24.86 0.1 32.2 95 -0.6 30.8
22:35 1012 29.88 842 24.86 0.1 32.2 95 -0.6 30.8
22:40 1013 29.91 842 24.86 0.2 32.3 95 -0.5 31.1
22:45 1013 29.91 842 24.86 0.2 32.4 95 -0.5 31.1
22:50 1013 29.91 842 24.86 0.2 32.3 95 -0.6 31
22:55 1012 29.88 842 24.86 0.2 32.3 95 -0.6 31
23:00 1012 29.88 842 24.86 0.2 32.4 95 -0.5 31
23:05 1012 29.88 842 24.86 0.3 32.5 94 -0.6 31
23:10 1012 29.88 842 24.86 0.3 32.6 93 -0.6 30.9
23:15 1013 29.91 842 24.86 0.3 32.5 93 -0.7 30.7
23:20 1013 29.91 842 24.86 0.3 32.5 93 -0.8 30.6
23:25 1013 29.91 842 24.86 0.1 32.2 92 -1 30.2
23:30 1012 29.88 842 24.86 -0.1 31.9 92 -1.2 29.8
23:35 1013 29.91 842 24.86 -0 31.9 93 -1.1 30
23:40 1013 29.91 842 24.86 0 32 93 -1 30.2
23:45 1013 29.91 842 24.86 0 32 93 -0.9 30.3
23:50 1013 29.91 842 24.86 0 32 94 -0.9 30.4
23:55 1012 29.88 842 24.86 0 32.1 94 -0.8 30.5
24:00 1013 29.91 842 24.86 0.1 32.1 94 -0.8 30.5